Time;durP1;ratioP1;P1;durP2;ratioP2;P2;SDS_P1;SDS_P2;PMS_P1;PMS_P2;Temp;Humidity;BMP_temperature;BMP_pressure;BME280_temperature;BME280_humidity;BME280_pressure;Samples;Min_cycle;Max_cycle;Signal;HPM_P1;HPM_P2
2023/12/28 00:08:34;;;;;;;;;;;0.50;99.90;;;;;;20988817;28;20293;-81
2023/12/28 00:18:34;;;;;;;;;;;0.20;99.90;;;;;;20949332;28;19913;-81
2023/12/28 00:28:35;;;;;;;;;;;0.10;99.90;;;;;;21010126;28;19909;-79
2023/12/28 00:38:37;;;;;;;;;;;0.20;99.90;;;;;;20968184;28;20003;-80
2023/12/28 00:48:37;;;;;;;;;;;0.20;99.90;;;;;;20963767;28;20289;-80
2023/12/28 00:58:39;;;;;;;;;;;-0.20;99.90;;;;;;20957645;28;19920;-80
2023/12/28 01:08:39;;;;;;;;;;;-0.30;99.90;;;;;;20940038;28;20360;-81
2023/12/28 01:18:40;;;;;;;;;;;-0.50;99.90;;;;;;20974348;28;19965;-81
2023/12/28 01:28:40;;;;;;;;;;;-0.50;99.90;;;;;;21001859;28;19916;-79
2023/12/28 01:38:41;;;;;;;;;;;-0.60;99.90;;;;;;20959566;28;19916;-80
2023/12/28 01:48:43;;;;;;;;;;;-0.70;99.90;;;;;;21006282;28;19947;-79
2023/12/28 01:58:45;;;;;;;;;;;-0.60;99.90;;;;;;20942393;28;19920;-79
2023/12/28 02:08:45;;;;;;;;;;;-0.50;99.90;;;;;;20933169;28;19908;-79
2023/12/28 02:18:49;;;;;;;;;;;-0.60;99.90;;;;;;20971285;28;20280;-78
2023/12/28 02:28:50;;;;;;;;;;;-0.30;99.90;;;;;;21002265;28;19908;-80
2023/12/28 02:38:51;;;;;;;;;;;-0.30;99.90;;;;;;21017666;28;19923;-79
2023/12/28 02:48:52;;;;;;;;;;;-0.60;99.90;;;;;;20979409;28;19912;-80
2023/12/28 02:58:53;;;;;;;;;;;-0.50;99.90;;;;;;21003739;28;19912;-80
2023/12/28 03:08:53;;;;;;;;;;;-0.40;99.90;;;;;;20993344;28;19944;-80
2023/12/28 03:18:54;;;;;;;;;;;-0.30;99.90;;;;;;20997693;28;19912;-80
2023/12/28 03:28:55;;;;;;;;;;;-0.30;99.90;;;;;;21032523;28;19912;-79
2023/12/28 03:38:55;;;;;;;;;;;-0.40;99.90;;;;;;21018200;28;19913;-80
2023/12/28 03:48:56;;;;;;;;;;;-0.70;99.90;;;;;;20983257;28;20011;-80
2023/12/28 03:58:57;;;;;;;;;;;-0.50;99.90;;;;;;21006885;28;19912;-78
2023/12/28 04:08:57;;;;;;;;;;;-0.50;99.90;;;;;;21008271;28;20300;-78
2023/12/28 04:18:58;;;;;;;;;;;-0.50;99.90;;;;;;21025240;28;20041;-80
2023/12/28 04:28:59;;;;;;;;;;;-0.40;99.90;;;;;;20979315;28;20351;-80
2023/12/28 04:38:59;;;;;;;;;;;-0.60;99.90;;;;;;20986997;28;20005;-79
2023/12/28 04:49:00;;;;;;;;;;;-0.50;99.90;;;;;;21017251;28;19908;-80
2023/12/28 04:59:01;;;;;;;;;;;-0.50;99.90;;;;;;20986463;28;19951;-79
2023/12/28 05:09:02;;;;;;;;;;;-0.40;99.90;;;;;;20990648;28;19915;-79
2023/12/28 05:19:03;;;;;;;;;;;-0.20;99.90;;;;;;20994074;28;19919;-79
2023/12/28 05:29:03;;;;;;;;;;;-0.30;99.90;;;;;;21018524;28;19908;-78
2023/12/28 05:39:04;;;;;;;;;;;-0.30;99.90;;;;;;21012350;28;19966;-78
2023/12/28 05:49:05;;;;;;;;;;;-0.10;99.90;;;;;;20979468;28;20377;-78
2023/12/28 05:59:06;;;;;;;;;;;0.10;99.90;;;;;;20951594;28;19912;-80
2023/12/28 06:09:07;;;;;;;;;;;0.10;99.90;;;;;;21030757;28;19915;-79
2023/12/28 06:19:09;;;;;;;;;;;0.10;99.90;;;;;;20981749;28;19919;-80
2023/12/28 06:29:10;;;;;;;;;;;0.20;99.90;;;;;;21031995;28;19944;-80
2023/12/28 06:39:11;;;;;;;;;;;0.00;99.90;;;;;;21033707;28;20105;-80
2023/12/28 06:49:11;;;;;;;;;;;-0.20;99.90;;;;;;21014144;28;19912;-80
2023/12/28 06:59:12;;;;;;;;;;;-0.30;99.90;;;;;;21052911;28;19912;-79
2023/12/28 07:09:13;;;;;;;;;;;-0.50;99.90;;;;;;20995565;28;19914;-80
2023/12/28 07:19:13;;;;;;;;;;;-0.40;99.90;;;;;;20990504;28;19913;-81
2023/12/28 07:29:14;;;;;;;;;;;-0.30;99.90;;;;;;21030178;28;20163;-81
2023/12/28 07:39:14;;;;;;;;;;;-0.10;99.90;;;;;;21005549;28;19912;-81
2023/12/28 07:49:15;;;;;;;;;;;-0.10;99.90;;;;;;21016485;28;19908;-79
2023/12/28 07:59:16;;;;;;;;;;;0.00;99.90;;;;;;21023350;28;19912;-79
2023/12/28 08:09:17;;;;;;;;;;;0.10;99.90;;;;;;20999535;28;19983;-80
2023/12/28 08:19:17;;;;;;;;;;;0.10;99.90;;;;;;21005409;28;19991;-80
2023/12/28 08:29:18;;;;;;;;;;;0.40;99.90;;;;;;20988522;28;20003;-79
2023/12/28 08:39:18;;;;;;;;;;;0.70;99.90;;;;;;21010716;28;19912;-80
2023/12/28 08:49:19;;;;;;;;;;;1.00;99.90;;;;;;21010527;28;19908;-76
2023/12/28 08:59:20;;;;;;;;;;;2.30;99.90;;;;;;20997583;28;19912;-79
2023/12/28 09:09:21;;;;;;;;;;;1.80;99.90;;;;;;20987546;28;19908;-83
2023/12/28 09:19:21;;;;;;;;;;;1.20;99.90;;;;;;21045039;28;19923;-81
2023/12/28 09:29:22;;;;;;;;;;;1.50;99.90;;;;;;21062280;28;19912;-81
2023/12/28 09:39:23;;;;;;;;;;;1.60;99.90;;;;;;21064218;28;19912;-81
2023/12/28 09:49:24;;;;;;;;;;;1.70;99.90;;;;;;21006062;28;19908;-80
2023/12/28 09:59:26;;;;;;;;;;;1.80;99.90;;;;;;21009273;28;19919;-82
2023/12/28 10:09:27;;;;;;;;;;;1.80;99.90;;;;;;20999030;28;19948;-82
2023/12/28 10:19:28;;;;;;;;;;;1.80;99.90;;;;;;21008850;28;20363;-79
2023/12/28 10:29:28;;;;;;;;;;;2.00;99.90;;;;;;21021385;28;19915;-79
2023/12/28 10:39:32;;;;;;;;;;;1.80;99.90;;;;;;20999577;28;19919;-79
2023/12/28 10:49:35;;;;;;;;;;;1.90;99.90;;;;;;21010440;28;19909;-81
2023/12/28 10:59:43;;;;;;;;;;;2.20;99.90;;;;;;21019282;28;20369;-80
2023/12/28 11:09:44;;;;;;;;;;;3.10;99.90;;;;;;20994726;28;19912;-79
2023/12/28 11:19:44;;;;;;;;;;;3.60;99.90;;;;;;21021216;28;19921;-82
2023/12/28 11:29:47;;;;;;;;;;;4.00;99.90;;;;;;20990808;28;20525;-81
2023/12/28 11:39:48;;;;;;;;;;;4.30;99.90;;;;;;20993592;28;19920;-82
2023/12/28 11:49:51;;;;;;;;;;;4.30;99.90;;;;;;20990260;28;19948;-82
2023/12/28 11:59:53;;;;;;;;;;;4.40;99.90;;;;;;20983233;28;19961;-78
2023/12/28 12:09:58;;;;;;;;;;;4.40;99.90;;;;;;21003869;28;19912;-83
2023/12/28 12:19:59;;;;;;;;;;;4.70;99.90;;;;;;20992799;28;19935;-79
2023/12/28 12:29:59;;;;;;;;;;;4.60;99.90;;;;;;20989973;28;19909;-80
2023/12/28 12:40:00;;;;;;;;;;;4.50;99.90;;;;;;20987575;28;19923;-83
2023/12/28 12:50:01;;;;;;;;;;;4.60;99.90;;;;;;21015364;28;19912;-81
2023/12/28 13:00:04;;;;;;;;;;;4.70;99.90;;;;;;21004757;28;20011;-81
2023/12/28 13:10:05;;;;;;;;;;;4.90;99.90;;;;;;20972080;28;19915;-80
2023/12/28 13:20:06;;;;;;;;;;;4.90;99.90;;;;;;20980934;28;19912;-80
2023/12/28 13:30:07;;;;;;;;;;;5.10;99.90;;;;;;20995085;28;19916;-80
2023/12/28 13:40:08;;;;;;;;;;;5.20;99.90;;;;;;20960959;28;19919;-79
2023/12/28 13:50:09;;;;;;;;;;;5.00;99.90;;;;;;21019205;28;19908;-81
2023/12/28 14:00:10;;;;;;;;;;;5.00;99.90;;;;;;20992156;28;20320;-83
2023/12/28 14:10:15;;;;;;;;;;;4.90;99.90;;;;;;20980472;28;20392;-81
2023/12/28 14:20:17;;;;;;;;;;;4.90;99.90;;;;;;20988803;28;19912;-81
2023/12/28 14:30:18;;;;;;;;;;;5.00;99.90;;;;;;20987873;28;20377;-85
2023/12/28 14:40:18;;;;;;;;;;;5.00;99.90;;;;;;21006037;28;19973;-81
2023/12/28 14:50:19;;;;;;;;;;;5.00;99.90;;;;;;20987220;28;19908;-83
2023/12/28 15:00:20;;;;;;;;;;;4.90;99.90;;;;;;20982085;28;20533;-81
2023/12/28 15:10:21;;;;;;;;;;;4.90;99.90;;;;;;20974244;28;19908;-82
2023/12/28 15:20:23;;;;;;;;;;;4.80;99.90;;;;;;21013121;28;19912;-83
2023/12/28 15:30:23;;;;;;;;;;;4.70;99.90;;;;;;20990271;28;19908;-83
2023/12/28 15:40:24;;;;;;;;;;;4.50;99.90;;;;;;21003119;28;19919;-82
2023/12/28 15:50:25;;;;;;;;;;;4.50;99.90;;;;;;21005107;28;19954;-81
2023/12/28 16:00:26;;;;;;;;;;;4.60;99.90;;;;;;20994669;28;20352;-81
2023/12/28 16:10:27;;;;;;;;;;;4.60;99.90;;;;;;20991541;28;19915;-82
2023/12/28 16:20:29;;;;;;;;;;;4.70;99.90;;;;;;20999345;28;20258;-81
2023/12/28 16:30:29;;;;;;;;;;;4.70;99.90;;;;;;21008763;28;19959;-81
2023/12/28 16:40:30;;;;;;;;;;;4.60;99.90;;;;;;20989138;28;19913;-81
2023/12/28 16:50:30;;;;;;;;;;;4.60;99.90;;;;;;20965558;28;20357;-80
2023/12/28 17:00:31;;;;;;;;;;;4.60;99.90;;;;;;20982059;28;19947;-80
2023/12/28 17:10:32;;;;;;;;;;;4.50;99.90;;;;;;21012686;28;19909;-81
2023/12/28 17:20:33;;;;;;;;;;;4.40;99.90;;;;;;20994337;28;20284;-82
2023/12/28 17:30:35;;;;;;;;;;;4.40;99.90;;;;;;21001576;28;20284;-81
2023/12/28 17:40:36;;;;;;;;;;;4.30;99.90;;;;;;21012967;28;19979;-82
2023/12/28 17:50:37;;;;;;;;;;;4.50;99.90;;;;;;21009934;28;20332;-80
2023/12/28 18:00:38;;;;;;;;;;;4.50;99.90;;;;;;20997545;28;19912;-80
2023/12/28 18:10:39;;;;;;;;;;;4.50;99.90;;;;;;21012411;28;19915;-81
2023/12/28 18:20:40;;;;;;;;;;;4.50;99.90;;;;;;20982238;28;19916;-81
2023/12/28 18:30:40;;;;;;;;;;;4.50;99.90;;;;;;20980779;28;19998;-81
2023/12/28 18:40:41;;;;;;;;;;;4.60;99.90;;;;;;20994717;28;20299;-80
2023/12/28 18:50:42;;;;;;;;;;;4.40;99.90;;;;;;20998883;28;19913;-80
2023/12/28 19:00:43;;;;;;;;;;;4.50;99.90;;;;;;20979568;28;19916;-80
2023/12/28 19:10:44;;;;;;;;;;;4.60;99.90;;;;;;21019568;28;19950;-81
2023/12/28 19:20:44;;;;;;;;;;;4.80;99.90;;;;;;20967671;28;19917;-80
2023/12/28 19:30:45;;;;;;;;;;;4.80;99.90;;;;;;20993942;28;19908;-79
2023/12/28 19:40:46;;;;;;;;;;;4.80;99.90;;;;;;21007850;28;19912;-80
2023/12/28 19:50:46;;;;;;;;;;;4.80;99.90;;;;;;21008098;28;20312;-81
2023/12/28 20:00:47;;;;;;;;;;;4.70;99.90;;;;;;21021879;28;19916;-81
2023/12/28 20:10:48;;;;;;;;;;;4.30;99.90;;;;;;21011442;28;19916;-81
2023/12/28 20:20:51;;;;;;;;;;;4.40;99.90;;;;;;21024135;28;19938;-81
2023/12/28 20:30:51;;;;;;;;;;;4.30;99.90;;;;;;21026896;28;19909;-81
2023/12/28 20:40:52;;;;;;;;;;;4.50;99.90;;;;;;21020356;28;19916;-80
2023/12/28 20:50:53;;;;;;;;;;;4.30;99.90;;;;;;20984992;28;20375;-81
2023/12/28 21:00:53;;;;;;;;;;;4.60;99.90;;;;;;21011430;28;19912;-81
2023/12/28 21:10:57;;;;;;;;;;;4.60;99.90;;;;;;20995063;28;19908;-81
2023/12/28 21:20:58;;;;;;;;;;;4.50;99.90;;;;;;20991719;28;19919;-80
2023/12/28 21:30:58;;;;;;;;;;;4.50;99.90;;;;;;20986138;28;20328;-80
2023/12/28 21:40:59;;;;;;;;;;;4.70;99.90;;;;;;21015212;28;19912;-82
2023/12/28 21:51:00;;;;;;;;;;;4.70;99.90;;;;;;20977188;28;19971;-82
2023/12/28 22:01:01;;;;;;;;;;;4.80;99.90;;;;;;21015759;28;19919;-80
2023/12/28 22:11:03;;;;;;;;;;;4.90;99.90;;;;;;20966554;28;20365;-81
2023/12/28 22:21:04;;;;;;;;;;;5.00;99.90;;;;;;20985071;28;19916;-80
2023/12/28 22:31:04;;;;;;;;;;;5.00;99.90;;;;;;20997574;28;20008;-82
2023/12/28 22:41:05;;;;;;;;;;;5.00;99.90;;;;;;20993928;28;19916;-80
2023/12/28 22:51:06;;;;;;;;;;;4.90;99.90;;;;;;21000217;28;19913;-81
2023/12/28 23:01:07;;;;;;;;;;;4.60;99.90;;;;;;21040897;28;19912;-78
2023/12/28 23:11:08;;;;;;;;;;;4.60;99.90;;;;;;21023112;28;20364;-81
2023/12/28 23:21:10;;;;;;;;;;;4.60;99.90;;;;;;21033494;28;19912;-80
2023/12/28 23:31:11;;;;;;;;;;;4.70;99.90;;;;;;21056668;28;19908;-83
2023/12/28 23:41:12;;;;;;;;;;;4.60;99.90;;;;;;20999994;28;19995;-83
2023/12/28 23:51:13;;;;;;;;;;;4.70;99.90;;;;;;21015015;28;20413;-81
